Time;durP1;ratioP1;P1;durP2;ratioP2;P2;SDS_P1;SDS_P2;PMS_P1;PMS_P2;Temp;Humidity;BMP_temperature;BMP_pressure;BME280_temperature;BME280_humidity;BME280_pressure;Samples;Min_cycle;Max_cycle;Signal;HPM_P1;HPM_P2
2021/03/15 00:00:55;;;;;;;14.55;9.02;;;;;;;;;;5109161;28;20484;-73
2021/03/15 00:03:21;;;;;;;18.17;9.73;;;;;;;;;;5109685;28;20089;-73
2021/03/15 00:05:48;;;;;;;14.15;9.10;;;;;;;;;;5109743;28;20062;-73
2021/03/15 00:08:14;;;;;;;17.77;9.90;;;;;;;;;;5108974;28;20480;-72
2021/03/15 00:10:40;;;;;;;16.88;11.60;;;;;;;;;;5109459;28;20044;-73
2021/03/15 00:13:07;;;;;;;13.90;8.52;;;;;;;;;;5109341;28;20038;-73
2021/03/15 00:15:34;;;;;;;15.80;10.93;;;;;;;;;;5090650;28;20149;-73
2021/03/15 00:18:01;;;;;;;20.98;11.32;;;;;;;;;;5109190;28;20024;-70
2021/03/15 00:20:27;;;;;;;20.90;11.35;;;;;;;;;;5098192;28;20055;-71
2021/03/15 00:22:53;;;;;;;19.65;10.57;;;;;;;;;;5088447;28;20069;-70
2021/03/15 00:25:19;;;;;;;14.52;9.50;;;;;;;;;;5070720;28;20021;-70
2021/03/15 00:27:46;;;;;;;15.63;9.48;;;;;;;;;;5088838;28;20495;-70
2021/03/15 00:30:14;;;;;;;15.02;9.63;;;;;;;;;;5088277;28;20111;-71
2021/03/15 00:32:40;;;;;;;18.45;10.93;;;;;;;;;;5076991;28;20017;-70
2021/03/15 00:35:08;;;;;;;16.13;10.80;;;;;;;;;;5075081;28;20542;-73
2021/03/15 00:37:34;;;;;;;16.25;10.43;;;;;;;;;;5074675;28;20480;-73
2021/03/15 00:40:01;;;;;;;18.48;12.13;;;;;;;;;;5074927;28;20028;-71
2021/03/15 00:42:27;;;;;;;17.52;12.13;;;;;;;;;;5074876;28;20103;-71
2021/03/15 00:44:53;;;;;;;19.05;10.57;;;;;;;;;;5074723;28;20032;-70
2021/03/15 00:47:19;;;;;;;16.15;10.95;;;;;;;;;;5075022;28;20488;-73
2021/03/15 00:49:46;;;;;;;26.58;13.00;;;;;;;;;;5074797;28;20032;-73
2021/03/15 00:52:12;;;;;;;18.95;11.02;;;;;;;;;;5074936;28;20027;-72
2021/03/15 00:54:38;;;;;;;16.33;10.93;;;;;;;;;;5074767;28;20025;-75
2021/03/15 00:57:04;;;;;;;14.95;10.15;;;;;;;;;;5074450;28;20017;-74
2021/03/15 00:59:30;;;;;;;16.05;11.27;;;;;;;;;;5074693;28;20362;-73
2021/03/15 01:01:57;;;;;;;17.48;12.38;;;;;;;;;;5074692;28;20396;-73
2021/03/15 01:04:23;;;;;;;16.98;10.80;;;;;;;;;;5074333;28;20021;-73
2021/03/15 01:06:50;;;;;;;17.27;11.02;;;;;;;;;;5074786;28;20039;-73
2021/03/15 01:09:16;;;;;;;18.10;11.05;;;;;;;;;;5074571;28;20500;-73
2021/03/15 01:11:42;;;;;;;18.00;11.68;;;;;;;;;;5074127;28;20029;-73
2021/03/15 01:14:09;;;;;;;15.80;10.07;;;;;;;;;;5074404;28;20054;-73
2021/03/15 01:16:35;;;;;;;18.00;10.57;;;;;;;;;;5074381;28;20388;-73
2021/03/15 01:19:01;;;;;;;19.20;12.57;;;;;;;;;;5073919;28;20418;-73
2021/03/15 01:21:28;;;;;;;26.38;12.10;;;;;;;;;;5074037;28;20087;-72
2021/03/15 01:23:54;;;;;;;17.83;11.43;;;;;;;;;;5074256;28;20095;-70
2021/03/15 01:26:20;;;;;;;22.77;12.98;;;;;;;;;;5073990;28;20029;-71
2021/03/15 01:28:46;;;;;;;20.85;11.80;;;;;;;;;;5074068;28;20197;-71
2021/03/15 01:31:13;;;;;;;17.00;10.43;;;;;;;;;;5073982;28;20024;-71
2021/03/15 01:33:40;;;;;;;14.23;9.52;;;;;;;;;;5073725;28;20021;-71
2021/03/15 01:36:06;;;;;;;18.98;11.77;;;;;;;;;;5073937;28;20091;-72
2021/03/15 01:38:32;;;;;;;35.53;22.67;;;;;;;;;;5073946;28;20029;-72
2021/03/15 01:40:59;;;;;;;33.75;21.02;;;;;;;;;;5073408;28;20116;-72
2021/03/15 01:43:25;;;;;;;29.13;18.55;;;;;;;;;;5073131;28;20384;-71
2021/03/15 01:45:51;;;;;;;26.42;15.27;;;;;;;;;;5073810;28;20540;-71
2021/03/15 01:48:17;;;;;;;23.20;14.45;;;;;;;;;;5073288;28;20047;-71
2021/03/15 01:50:48;;;;;;;19.95;12.40;;;;;;;;;;5073563;28;20020;-71
2021/03/15 01:53:15;;;;;;;17.75;11.85;;;;;;;;;;5073157;28;20029;-71
2021/03/15 01:55:41;;;;;;;22.58;13.13;;;;;;;;;;5073605;28;20430;-71
2021/03/15 01:58:07;;;;;;;23.85;14.45;;;;;;;;;;5073441;28;20035;-71
2021/03/15 02:00:34;;;;;;;17.65;11.13;;;;;;;;;;5073185;28;20492;-71
2021/03/15 02:03:04;;;;;;;16.20;11.80;;;;;;;;;;5073879;28;20031;-71
2021/03/15 02:05:31;;;;;;;19.35;11.68;;;;;;;;;;5073321;28;20028;-71
2021/03/15 02:07:57;;;;;;;18.15;10.43;;;;;;;;;;5054996;28;20028;-71
2021/03/15 02:10:24;;;;;;;19.08;11.27;;;;;;;;;;5055360;28;20435;-71
2021/03/15 02:12:50;;;;;;;17.45;10.98;;;;;;;;;;5073456;28;20377;-71
2021/03/15 02:15:35;;;;;;;19.55;11.93;;;;;;;;;;5072936;28;20029;-73
2021/03/15 02:18:04;;;;;;;16.92;11.63;;;;;;;;;;5055060;28;20023;-72
2021/03/15 02:20:49;;;;;;;15.02;10.07;;;;;;;;;;5073072;28;20436;-72
2021/03/15 02:23:19;;;;;;;16.77;10.75;;;;;;;;;;5054885;28;20047;-72
2021/03/15 02:25:51;;;;;;;17.45;10.45;;;;;;;;;;5072985;28;20017;-72
2021/03/15 02:28:36;;;;;;;19.13;10.35;;;;;;;;;;5072407;28;20040;-71
2021/03/15 02:31:05;;;;;;;17.02;11.23;;;;;;;;;;5072847;28;20062;-71
2021/03/15 02:33:51;;;;;;;17.08;11.05;;;;;;;;;;5072862;28;20081;-72
2021/03/15 02:36:18;;;;;;;16.67;11.13;;;;;;;;;;5054505;28;20024;-72
2021/03/15 02:38:46;;;;;;;15.05;9.73;;;;;;;;;;5072753;28;20086;-73
2021/03/15 02:41:13;;;;;;;16.98;11.23;;;;;;;;;;5072705;28;20060;-71
2021/03/15 02:43:44;;;;;;;20.25;11.35;;;;;;;;;;5054514;28;20134;-71
2021/03/15 02:46:12;;;;;;;16.98;10.80;;;;;;;;;;5072637;28;20099;-70
2021/03/15 02:48:38;;;;;;;18.83;11.05;;;;;;;;;;5072777;28;20523;-71
2021/03/15 02:51:06;;;;;;;16.33;10.95;;;;;;;;;;5072083;28;20028;-71
2021/03/15 02:53:33;;;;;;;17.30;10.77;;;;;;;;;;5072548;28;20020;-72
2021/03/15 02:56:04;;;;;;;14.27;9.65;;;;;;;;;;5054326;28;20031;-72
2021/03/15 02:58:31;;;;;;;16.75;10.95;;;;;;;;;;5072136;28;20028;-72
2021/03/15 03:00:58;;;;;;;15.13;10.00;;;;;;;;;;5072552;28;20025;-72
2021/03/15 03:03:26;;;;;;;17.83;9.20;;;;;;;;;;5072459;28;20028;-72
2021/03/15 03:05:53;;;;;;;16.13;10.02;;;;;;;;;;5072317;28;20036;-72
2021/03/15 03:08:19;;;;;;;14.80;9.77;;;;;;;;;;5072410;28;20055;-72
2021/03/15 03:10:47;;;;;;;20.60;10.00;;;;;;;;;;5071919;28;20375;-72
2021/03/15 03:13:14;;;;;;;18.02;11.50;;;;;;;;;;5072283;28;20021;-71
2021/03/15 03:15:42;;;;;;;14.63;10.13;;;;;;;;;;5054324;28;20029;-71
2021/03/15 03:18:12;;;;;;;20.73;12.98;;;;;;;;;;5071879;28;20366;-71
2021/03/15 03:20:39;;;;;;;15.30;8.85;;;;;;;;;;5072196;28;20074;-71
2021/03/15 03:23:06;;;;;;;15.45;10.85;;;;;;;;;;5072474;28;20079;-71
2021/03/15 03:25:33;;;;;;;16.08;11.02;;;;;;;;;;5071980;28;20150;-71
2021/03/15 03:28:00;;;;;;;18.88;11.57;;;;;;;;;;5072250;28;20074;-71
2021/03/15 03:30:30;;;;;;;18.85;11.05;;;;;;;;;;5072182;28;20044;-71
2021/03/15 03:33:01;;;;;;;14.10;9.88;;;;;;;;;;5071769;28;20020;-72
2021/03/15 03:35:28;;;;;;;17.52;10.65;;;;;;;;;;5072197;28;20104;-72
2021/03/15 03:37:55;;;;;;;22.73;13.13;;;;;;;;;;5072083;28;20024;-72
2021/03/15 03:40:21;;;;;;;15.13;10.95;;;;;;;;;;5071722;28;20070;-72
2021/03/15 03:42:47;;;;;;;17.42;9.43;;;;;;;;;;5072267;28;20607;-72
2021/03/15 03:45:14;;;;;;;18.65;10.75;;;;;;;;;;5072030;28;20031;-72
2021/03/15 03:47:41;;;;;;;15.75;10.63;;;;;;;;;;5071587;28;20114;-71
2021/03/15 03:50:11;;;;;;;19.13;10.98;;;;;;;;;;5072061;28;20477;-71
2021/03/15 03:52:37;;;;;;;18.02;12.20;;;;;;;;;;5071980;28;20422;-72
2021/03/15 03:55:07;;;;;;;18.98;11.60;;;;;;;;;;5072095;28;20090;-72
2021/03/15 03:57:34;;;;;;;16.40;10.63;;;;;;;;;;5071900;28;20062;-72
2021/03/15 04:00:04;;;;;;;19.90;11.23;;;;;;;;;;5071392;28;20525;-72
2021/03/15 04:02:31;;;;;;;17.20;11.00;;;;;;;;;;5071975;28;20096;-72
2021/03/15 04:05:08;;;;;;;14.43;10.18;;;;;;;;;;5071934;28;20031;-71
2021/03/15 04:07:35;;;;;;;16.75;12.30;;;;;;;;;;5073753;28;20027;-71
2021/03/15 04:10:09;;;;;;;14.98;9.82;;;;;;;;;;5057687;28;20384;-72
2021/03/15 04:12:36;;;;;;;18.08;12.30;;;;;;;;;;5075577;28;20385;-72
2021/03/15 04:15:03;;;;;;;14.52;10.48;;;;;;;;;;5075009;28;20031;-72
2021/03/15 04:17:36;;;;;;;14.15;9.48;;;;;;;;;;5075656;28;20021;-72
2021/03/15 04:20:12;;;;;;;14.18;9.13;;;;;;;;;;5075154;28;20040;-72
2021/03/15 04:22:50;;;;;;;15.32;10.18;;;;;;;;;;5075182;28;20024;-72
2021/03/15 04:25:17;;;;;;;19.55;11.05;;;;;;;;;;5075487;28;20481;-72
2021/03/15 04:27:44;;;;;;;19.40;12.55;;;;;;;;;;5075257;28;20032;-72
2021/03/15 04:30:12;;;;;;;19.90;12.10;;;;;;;;;;5074861;28;20073;-72
2021/03/15 04:32:40;;;;;;;19.02;11.20;;;;;;;;;;5075171;28;20430;-72
2021/03/15 04:35:07;;;;;;;15.88;10.75;;;;;;;;;;5056774;28;20032;-72
2021/03/15 04:37:34;;;;;;;18.08;11.40;;;;;;;;;;5075064;28;20028;-73
2021/03/15 04:40:00;;;;;;;16.33;10.95;;;;;;;;;;5074971;28;20392;-72
2021/03/15 04:42:26;;;;;;;14.93;10.77;;;;;;;;;;5074715;28;20158;-72
2021/03/15 04:44:53;;;;;;;18.42;12.82;;;;;;;;;;5075136;28;20051;-72
2021/03/15 04:47:19;;;;;;;19.45;13.45;;;;;;;;;;5074840;28;20545;-72
2021/03/15 04:49:48;;;;;;;16.17;11.48;;;;;;;;;;5074638;28;20028;-72
2021/03/15 04:52:15;;;;;;;21.90;12.13;;;;;;;;;;5074851;28;20042;-72
2021/03/15 04:54:44;;;;;;;16.73;11.40;;;;;;;;;;5074718;28;20028;-72
2021/03/15 04:57:11;;;;;;;19.88;12.07;;;;;;;;;;5074353;28;20099;-73
2021/03/15 04:59:39;;;;;;;17.27;11.40;;;;;;;;;;5056652;28;20036;-72
2021/03/15 05:02:06;;;;;;;19.08;13.18;;;;;;;;;;5056648;28;20024;-72
2021/03/15 05:04:32;;;;;;;20.65;12.30;;;;;;;;;;5056375;28;20032;-72
2021/03/15 05:06:59;;;;;;;17.67;11.52;;;;;;;;;;5056618;28;20032;-72
2021/03/15 05:09:27;;;;;;;20.30;13.25;;;;;;;;;;5074515;28;20017;-72
2021/03/15 05:11:54;;;;;;;16.80;10.98;;;;;;;;;;5074138;28;20035;-73
2021/03/15 05:14:21;;;;;;;18.33;11.98;;;;;;;;;;5074521;28;20028;-73
2021/03/15 05:16:47;;;;;;;18.80;11.00;;;;;;;;;;5056505;28;20488;-73
2021/03/15 05:19:14;;;;;;;17.90;12.30;;;;;;;;;;5073717;28;20017;-71
2021/03/15 05:21:41;;;;;;;18.73;12.52;;;;;;;;;;5056172;28;20028;-73
2021/03/15 05:24:08;;;;;;;27.20;14.85;;;;;;;;;;5074029;28;20031;-72
2021/03/15 05:26:36;;;;;;;23.10;14.07;;;;;;;;;;5074282;28;20073;-72
2021/03/15 05:29:03;;;;;;;17.55;11.45;;;;;;;;;;5074064;28;20025;-72
2021/03/15 05:31:30;;;;;;;19.85;13.40;;;;;;;;;;5073699;28;20024;-72
2021/03/15 05:33:58;;;;;;;22.15;13.48;;;;;;;;;;5073958;28;20024;-72
2021/03/15 05:36:24;;;;;;;20.83;13.93;;;;;;;;;;5073940;28;20073;-72
2021/03/15 05:38:51;;;;;;;19.85;13.05;;;;;;;;;;5073556;28;20019;-72
2021/03/15 05:41:17;;;;;;;22.95;14.27;;;;;;;;;;5073757;28;20480;-72
2021/03/15 05:43:50;;;;;;;23.75;16.63;;;;;;;;;;5074017;28;20016;-73
2021/03/15 05:46:35;;;;;;;26.52;18.33;;;;;;;;;;5073624;28;20035;-73
2021/03/15 05:49:08;;;;;;;43.45;25.50;;;;;;;;;;5055746;28;20036;-73
2021/03/15 05:51:37;;;;;;;44.35;24.42;;;;;;;;;;5073739;28;20020;-73
2021/03/15 05:54:20;;;;;;;59.50;38.55;;;;;;;;;;5055246;28;20090;-72
2021/03/15 05:56:49;;;;;;;43.92;27.40;;;;;;;;;;5073613;28;20027;-72
2021/03/15 05:59:20;;;;;;;32.13;18.83;;;;;;;;;;5073119;28;20025;-72
2021/03/15 06:02:06;;;;;;;28.45;16.90;;;;;;;;;;5073630;28;20078;-73
2021/03/15 06:04:32;;;;;;;31.27;19.40;;;;;;;;;;5055705;28;20025;-72
2021/03/15 06:07:02;;;;;;;45.05;30.15;;;;;;;;;;5072944;28;20020;-72
2021/03/15 06:09:30;;;;;;;36.40;22.40;;;;;;;;;;5073287;28;20021;-72
2021/03/15 06:12:04;;;;;;;33.00;20.73;;;;;;;;;;5073282;28;20048;-73
2021/03/15 06:14:30;;;;;;;25.20;17.00;;;;;;;;;;5074992;28;20058;-71
2021/03/15 06:16:57;;;;;;;28.90;19.00;;;;;;;;;;5062851;28;20054;-71
2021/03/15 06:19:25;;;;;;;25.63;15.48;;;;;;;;;;5039993;28;20028;-71
2021/03/15 06:21:52;;;;;;;36.90;21.40;;;;;;;;;;5040218;28;20028;-69
2021/03/15 06:24:19;;;;;;;56.75;32.88;;;;;;;;;;5025100;28;20471;-76
2021/03/15 06:26:46;;;;;;;49.45;29.92;;;;;;;;;;5058649;28;20020;-77
2021/03/15 06:29:13;;;;;;;40.40;24.52;;;;;;;;;;5066093;28;20024;-70
2021/03/15 06:31:40;;;;;;;39.65;25.85;;;;;;;;;;5040599;28;20484;-73
2021/03/15 06:34:06;;;;;;;46.55;35.97;;;;;;;;;;5049414;28;20025;-72
2021/03/15 06:36:34;;;;;;;48.55;30.80;;;;;;;;;;5072213;28;20553;-72
2021/03/15 06:39:01;;;;;;;55.60;34.75;;;;;;;;;;5059235;28;20103;-69
2021/03/15 06:41:29;;;;;;;49.55;32.75;;;;;;;;;;5037083;28;20037;-69
2021/03/15 06:43:55;;;;;;;50.70;34.20;;;;;;;;;;5047504;28;20023;-69
2021/03/15 06:46:21;;;;;;;40.47;30.50;;;;;;;;;;5064699;28;20020;-71
2021/03/15 06:48:48;;;;;;;42.15;27.52;;;;;;;;;;5070760;28;20016;-69
2021/03/15 06:51:14;;;;;;;33.80;22.80;;;;;;;;;;5071500;28;20028;-69
2021/03/15 06:53:41;;;;;;;34.50;23.33;;;;;;;;;;5062546;28;20028;-71
2021/03/15 06:56:15;;;;;;;40.80;24.67;;;;;;;;;;5058730;28;20066;-74
2021/03/15 06:58:48;;;;;;;23.35;16.58;;;;;;;;;;5056675;28;20024;-71
2021/03/15 07:01:27;;;;;;;26.77;18.50;;;;;;;;;;5071659;28;20036;-73
2021/03/15 07:04:12;;;;;;;26.05;15.88;;;;;;;;;;5071351;28;20048;-71
2021/03/15 07:06:39;;;;;;;19.67;13.20;;;;;;;;;;5070012;28;20030;-72
2021/03/15 07:09:12;;;;;;;23.58;14.45;;;;;;;;;;5069946;28;20024;-72
2021/03/15 07:11:39;;;;;;;20.65;13.68;;;;;;;;;;5070709;28;20044;-73
2021/03/15 07:14:05;;;;;;;25.58;16.60;;;;;;;;;;5071616;28;20032;-73
2021/03/15 07:16:32;;;;;;;26.55;16.17;;;;;;;;;;5071602;28;20032;-73
2021/03/15 07:19:00;;;;;;;25.63;15.40;;;;;;;;;;5065117;28;20044;-71
2021/03/15 07:21:35;;;;;;;23.00;13.23;;;;;;;;;;5068884;28;20610;-68
2021/03/15 07:24:02;;;;;;;21.83;13.90;;;;;;;;;;5051381;28;20021;-70
2021/03/15 07:26:32;;;;;;;30.45;16.60;;;;;;;;;;5056292;28;20029;-70
2021/03/15 07:28:59;;;;;;;20.15;12.85;;;;;;;;;;5060739;28;20031;-68
2021/03/15 07:31:32;;;;;;;21.33;11.35;;;;;;;;;;5052892;28;20029;-67
2021/03/15 07:33:58;;;;;;;;;;;;;;;;;;5072051;28;20025;-69
2021/03/15 07:36:28;;;;;;;19.90;10.68;;;;;;;;;;5052829;28;19908;-69
2021/03/15 07:38:55;;;;;;;15.82;10.75;;;;;;;;;;5071343;28;20025;-68
2021/03/15 07:41:21;;;;;;;17.27;11.45;;;;;;;;;;5071811;28;20036;-69
2021/03/15 07:43:48;;;;;;;24.35;13.75;;;;;;;;;;5074058;28;20021;-69
2021/03/15 07:46:18;;;;;;;15.18;10.75;;;;;;;;;;5066625;28;20500;-72
2021/03/15 07:48:45;;;;;;;17.58;9.82;;;;;;;;;;5064028;28;20385;-72
2021/03/15 07:51:11;;;;;;;20.88;13.13;;;;;;;;;;5054376;28;20388;-70
2021/03/15 07:56:04;;;;;;;19.20;10.63;;;;;;;;;;5067182;28;20387;-72
2021/03/15 07:59:02;;;;;;;15.73;8.98;;;;;;;;;;5092703;27;20802;-71
2021/03/15 08:01:28;;;;;;;16.05;9.68;;;;;;;;;;5087618;28;20114;-71
2021/03/15 08:04:20;;;;;;;18.95;12.90;;;;;;;;;;5108188;27;20952;-69
2021/03/15 08:06:46;;;;;;;19.67;11.63;;;;;;;;;;5089784;28;20067;-74
2021/03/15 08:13:01;;;;;;;22.30;12.55;;;;;;;;;;5128984;27;20424;-75
2021/03/15 08:15:29;;;;;;;22.73;14.02;;;;;;;;;;5129335;28;20488;-75
2021/03/15 08:17:56;;;;;;;19.13;13.38;;;;;;;;;;5130263;28;20024;-74
2021/03/15 08:20:24;;;;;;;24.02;13.98;;;;;;;;;;5111086;28;20050;-74
2021/03/15 08:22:52;;;;;;;35.17;18.33;;;;;;;;;;5111424;28;20400;-74
2021/03/15 08:25:19;;;;;;;22.40;16.67;;;;;;;;;;5129556;28;20028;-73
2021/03/15 08:27:49;;;;;;;22.58;14.10;;;;;;;;;;5129675;28;20437;-71
2021/03/15 08:30:16;;;;;;;23.80;17.20;;;;;;;;;;5111080;28;20382;-73
2021/03/15 08:32:43;;;;;;;20.25;14.35;;;;;;;;;;5129575;28;20059;-74
2021/03/15 08:35:10;;;;;;;36.75;21.55;;;;;;;;;;5110761;28;20024;-73
2021/03/15 08:37:48;;;;;;;29.90;19.52;;;;;;;;;;5129574;28;20026;-73
2021/03/15 08:40:14;;;;;;;24.75;15.98;;;;;;;;;;5123731;28;20020;-73
2021/03/15 08:42:41;;;;;;;23.85;13.13;;;;;;;;;;5108857;28;20522;-73
2021/03/15 08:45:27;;;;;;;47.67;22.98;;;;;;;;;;5124705;28;20027;-73
2021/03/15 08:47:53;;;;;;;16.85;8.82;;;;;;;;;;5120388;28;20036;-72
2021/03/15 08:50:35;;;;;;;11.02;6.57;;;;;;;;;;5116596;28;20026;-75
2021/03/15 08:53:02;;;;;;;7.90;4.60;;;;;;;;;;5128056;28;20134;-75
2021/03/15 08:55:44;;;;;;;5.90;2.63;;;;;;;;;;5129036;28;20435;-74
2021/03/15 08:58:29;;;;;;;6.93;3.63;;;;;;;;;;5129402;28;20031;-76
2021/03/15 09:00:56;;;;;;;6.53;3.63;;;;;;;;;;5128998;28;20058;-76
2021/03/15 09:03:41;;;;;;;5.75;2.40;;;;;;;;;;5110278;28;20030;-76
2021/03/15 09:06:07;;;;;;;4.82;2.40;;;;;;;;;;5110469;28;20122;-73
2021/03/15 09:08:52;;;;;;;6.30;3.00;;;;;;;;;;5127695;28;20019;-75
2021/03/15 09:11:37;;;;;;;6.25;2.67;;;;;;;;;;5122835;28;20055;-76
2021/03/15 09:14:16;;;;;;;6.13;2.50;;;;;;;;;;5128318;28;20015;-76
2021/03/15 09:16:42;;;;;;;5.35;2.47;;;;;;;;;;5127831;28;20485;-76
2021/03/15 09:19:19;;;;;;;2.30;0.95;;;;;;;;;;5127996;28;20098;-75
2021/03/15 09:21:46;;;;;;;3.60;1.38;;;;;;;;;;5128195;28;20023;-77
2021/03/15 09:24:31;;;;;;;3.63;2.03;;;;;;;;;;5097040;28;20024;-77
2021/03/15 09:26:57;;;;;;;34.63;14.80;;;;;;;;;;5115453;28;20160;-78
2021/03/15 09:29:24;;;;;;;8.75;4.93;;;;;;;;;;5096701;28;20383;-79
2021/03/15 09:33:28;;;;;;;3.63;2.15;;;;;;;;;;5108419;27;20422;-79
2021/03/15 09:35:55;;;;;;;8.63;3.80;;;;;;;;;;5109146;28;20031;-80
2021/03/15 09:38:22;;;;;;;9.25;3.17;;;;;;;;;;5109026;28;20047;-77
2021/03/15 09:40:50;;;;;;;5.10;2.28;;;;;;;;;;5109465;28;20103;-73
2021/03/15 09:46:14;;;;;;;6.05;2.80;;;;;;;;;;5068529;28;20383;-77
2021/03/15 09:48:40;;;;;;;8.45;4.03;;;;;;;;;;5068957;28;20032;-74
2021/03/15 09:51:08;;;;;;;6.82;3.50;;;;;;;;;;5074947;28;20431;-74
2021/03/15 09:53:35;;;;;;;5.85;2.72;;;;;;;;;;5081594;28;20074;-74
2021/03/15 09:56:05;;;;;;;5.80;2.58;;;;;;;;;;5073863;28;20051;-73
2021/03/15 09:58:31;;;;;;;10.60;5.20;;;;;;;;;;5068363;28;20059;-74
2021/03/15 10:00:58;;;;;;;11.02;6.95;;;;;;;;;;5068860;28;20081;-75
2021/03/15 10:03:26;;;;;;;7.75;3.65;;;;;;;;;;5068529;28;20032;-75
2021/03/15 10:05:52;;;;;;;8.93;2.55;;;;;;;;;;5068159;28;20078;-75
2021/03/15 10:10:09;;;;;;;13.13;5.10;;;;;;;;;;5129900;27;20312;-73
2021/03/15 10:12:35;;;;;;;5.75;3.05;;;;;;;;;;5094051;28;20012;-74
2021/03/15 10:16:08;;;;;;;5.88;2.63;;;;;;;;;;5066900;28;20387;-73
2021/03/15 10:18:34;;;;;;;8.82;5.00;;;;;;;;;;5069081;28;20029;-73
2021/03/15 10:21:00;;;;;;;27.50;11.63;;;;;;;;;;5067139;28;20017;-74
2021/03/15 10:28:15;;;;;;;5.15;2.60;;;;;;;;;;5067733;28;20406;-73
2021/03/15 10:31:19;;;;;;;5.00;2.17;;;;;;;;;;5067341;28;20388;-74
2021/03/15 10:34:37;;;;;;;13.57;7.43;;;;;;;;;;5109368;27;20389;-74
2021/03/15 10:37:03;;;;;;;16.58;7.28;;;;;;;;;;5108256;28;20036;-71
2021/03/15 10:40:24;;;;;;;7.90;3.65;;;;;;;;;;5109556;27;20381;-73
2021/03/15 10:42:50;;;;;;;7.20;3.80;;;;;;;;;;5109247;28;20032;-73
2021/03/15 10:45:17;;;;;;;6.35;3.05;;;;;;;;;;5109392;28;20026;-71
2021/03/15 10:49:56;;;;;;;13.02;7.03;;;;;;;;;;5121242;27;20392;-72
2021/03/15 10:52:28;;;;;;;10.85;5.30;;;;;;;;;;5130028;28;20028;-74
2021/03/15 10:59:40;;;;;;;9.90;4.38;;;;;;;;;;5056201;28;20415;-75
2021/03/15 11:02:07;;;;;;;14.55;8.30;;;;;;;;;;5058274;28;20074;-76
2021/03/15 11:04:37;;;;;;;16.42;7.15;;;;;;;;;;5067472;28;20053;-73
2021/03/15 11:07:36;;;;;;;18.20;8.10;;;;;;;;;;5054259;28;20029;-74
2021/03/15 11:10:13;;;;;;;10.18;3.50;;;;;;;;;;5046003;28;20033;-73
2021/03/15 11:12:41;;;;;;;12.60;6.15;;;;;;;;;;5067630;28;20114;-75
2021/03/15 11:15:09;;;;;;;14.02;6.75;;;;;;;;;;5068541;28;20501;-72
2021/03/15 11:19:09;;;;;;;16.40;7.68;;;;;;;;;;5109833;27;20397;-73
2021/03/15 11:21:39;;;;;;;14.38;7.30;;;;;;;;;;5109582;28;20024;-75
2021/03/15 11:24:06;;;;;;;12.43;6.90;;;;;;;;;;5109001;28;20024;-73
2021/03/15 11:27:32;;;;;;;13.50;6.43;;;;;;;;;;5069205;28;20384;-75
2021/03/15 11:29:58;;;;;;;15.70;7.90;;;;;;;;;;5066798;28;20029;-72
2021/03/15 11:32:24;;;;;;;12.55;6.40;;;;;;;;;;5068976;28;20028;-73
2021/03/15 11:34:51;;;;;;;14.20;6.63;;;;;;;;;;5068927;28;20028;-74
2021/03/15 11:40:46;;;;;;;18.52;8.55;;;;;;;;;;5068622;28;20860;-76
2021/03/15 11:43:13;;;;;;;15.07;7.28;;;;;;;;;;5066936;28;20029;-73
2021/03/15 11:45:40;;;;;;;25.80;13.25;;;;;;;;;;5067250;28;20099;-73
2021/03/15 11:48:07;;;;;;;24.30;10.20;;;;;;;;;;5067486;28;20013;-71
2021/03/15 11:50:35;;;;;;;13.57;5.63;;;;;;;;;;5064440;28;20017;-74
2021/03/15 11:55:45;;;;;;;15.07;5.07;;;;;;;;;;5108250;27;20388;-75
2021/03/15 11:58:12;;;;;;;9.23;4.38;;;;;;;;;;5108884;28;20027;-73
2021/03/15 12:00:38;;;;;;;8.73;4.20;;;;;;;;;;5106636;28;20495;-74
2021/03/15 12:03:04;;;;;;;5.25;2.15;;;;;;;;;;5109209;28;20032;-74
2021/03/15 12:06:50;;;;;;;3.47;1.25;;;;;;;;;;5068480;28;20891;-74
2021/03/15 12:09:16;;;;;;;7.72;3.13;;;;;;;;;;5066283;28;20025;-73
2021/03/15 12:11:43;;;;;;;5.57;2.45;;;;;;;;;;5068253;28;20048;-76
2021/03/15 12:14:09;;;;;;;5.82;1.45;;;;;;;;;;5067715;28;20063;-76
2021/03/15 12:16:35;;;;;;;2.15;0.85;;;;;;;;;;5062128;28;20016;-73
2021/03/15 12:19:01;;;;;;;3.15;1.08;;;;;;;;;;5066360;28;20589;-72
2021/03/15 12:21:27;;;;;;;3.65;1.60;;;;;;;;;;5068485;28;20036;-72
2021/03/15 12:24:15;;;;;;;10.05;2.72;;;;;;;;;;5069390;28;21248;-72
2021/03/15 12:26:41;;;;;;;4.57;1.65;;;;;;;;;;5047942;28;20059;-73
2021/03/15 12:29:08;;;;;;;3.03;1.10;;;;;;;;;;5054361;28;20515;-74
2021/03/15 12:31:35;;;;;;;2.95;1.45;;;;;;;;;;5063170;28;20108;-74
2021/03/15 12:34:01;;;;;;;8.13;3.50;;;;;;;;;;5068889;28;20048;-74
2021/03/15 12:36:27;;;;;;;5.82;2.88;;;;;;;;;;5068975;28;20035;-74
2021/03/15 12:38:53;;;;;;;3.15;1.90;;;;;;;;;;5068254;28;20025;-75
2021/03/15 12:41:20;;;;;;;4.55;1.83;;;;;;;;;;5069058;28;20028;-74
2021/03/15 12:43:46;;;;;;;2.85;1.20;;;;;;;;;;5069416;28;20111;-75
2021/03/15 12:46:18;;;;;;;2.55;1.88;;;;;;;;;;5069163;28;20627;-72
2021/03/15 12:48:44;;;;;;;8.93;4.70;;;;;;;;;;5068829;28;20108;-72
2021/03/15 12:51:10;;;;;;;12.70;6.65;;;;;;;;;;5068972;28;20687;-72
2021/03/15 12:53:37;;;;;;;11.07;5.28;;;;;;;;;;5059686;28;20048;-73
2021/03/15 12:56:03;;;;;;;17.23;8.35;;;;;;;;;;5046848;28;20065;-73
2021/03/15 12:58:29;;;;;;;11.45;6.03;;;;;;;;;;5047757;28;20029;-75
2021/03/15 13:00:55;;;;;;;21.42;11.60;;;;;;;;;;5047061;28;20792;-76
2021/03/15 13:03:22;;;;;;;16.73;9.30;;;;;;;;;;5046664;28;20045;-76
2021/03/15 13:05:48;;;;;;;19.23;9.27;;;;;;;;;;5045466;28;20066;-75
2021/03/15 13:08:14;;;;;;;13.55;7.65;;;;;;;;;;5046631;28;20028;-76
2021/03/15 13:10:40;;;;;;;10.77;5.55;;;;;;;;;;5046148;28;20029;-75
2021/03/15 13:13:07;;;;;;;13.20;6.57;;;;;;;;;;5054262;28;20074;-75
2021/03/15 13:15:33;;;;;;;11.43;6.32;;;;;;;;;;5067116;28;20027;-76
2021/03/15 13:17:59;;;;;;;12.98;8.23;;;;;;;;;;5067526;28;20094;-76
2021/03/15 13:20:26;;;;;;;14.98;8.60;;;;;;;;;;5067625;28;20092;-76
2021/03/15 13:22:52;;;;;;;17.73;8.57;;;;;;;;;;5066823;28;20041;-75
2021/03/15 13:25:18;;;;;;;16.52;9.88;;;;;;;;;;5067880;28;20021;-76
2021/03/15 13:27:44;;;;;;;17.70;10.38;;;;;;;;;;5068338;28;20444;-75
2021/03/15 13:30:11;;;;;;;22.73;12.80;;;;;;;;;;5067930;28;20047;-75
2021/03/15 13:32:37;;;;;;;17.05;9.80;;;;;;;;;;5068318;28;20384;-76
2021/03/15 13:35:04;;;;;;;15.00;9.02;;;;;;;;;;5057968;28;20051;-75
2021/03/15 13:37:30;;;;;;;13.35;7.18;;;;;;;;;;5054585;28;20025;-76
2021/03/15 13:39:56;;;;;;;11.50;6.80;;;;;;;;;;5055003;28;20469;-76
2021/03/15 13:42:22;;;;;;;13.20;7.63;;;;;;;;;;5055065;28;20056;-75
2021/03/15 13:44:49;;;;;;;15.05;7.03;;;;;;;;;;5054808;28;20111;-75
2021/03/15 13:47:16;;;;;;;11.27;6.00;;;;;;;;;;5053650;28;20021;-76
2021/03/15 13:49:42;;;;;;;10.55;5.88;;;;;;;;;;5054721;28;20389;-76
2021/03/15 13:54:18;;;;;;;9.43;4.63;;;;;;;;;;5069704;28;20445;-76
2021/03/15 13:56:44;;;;;;;12.05;6.32;;;;;;;;;;5069703;28;20348;-76
2021/03/15 13:59:10;;;;;;;10.48;6.00;;;;;;;;;;5068343;28;20385;-76
2021/03/15 14:01:37;;;;;;;9.00;4.30;;;;;;;;;;5068304;28;20025;-75
2021/03/15 14:04:03;;;;;;;8.23;4.57;;;;;;;;;;5069760;28;20024;-76
2021/03/15 14:06:29;;;;;;;9.70;5.85;;;;;;;;;;5069213;28;20079;-75
2021/03/15 14:08:55;;;;;;;7.97;3.85;;;;;;;;;;5069509;28;20496;-76
2021/03/15 14:11:22;;;;;;;11.68;6.18;;;;;;;;;;5069224;28;20105;-77
2021/03/15 14:13:48;;;;;;;12.27;6.28;;;;;;;;;;5068267;28;20028;-75
2021/03/15 14:16:14;;;;;;;11.27;5.45;;;;;;;;;;5069351;28;20069;-75
2021/03/15 14:18:40;;;;;;;9.10;4.63;;;;;;;;;;5068813;28;20029;-76
2021/03/15 14:21:06;;;;;;;11.20;5.20;;;;;;;;;;5069421;28;20046;-76
2021/03/15 14:23:33;;;;;;;17.35;6.60;;;;;;;;;;5069510;28;20074;-75
2021/03/15 14:25:59;;;;;;;10.90;6.18;;;;;;;;;;5069028;28;20590;-75
2021/03/15 14:28:25;;;;;;;10.10;5.53;;;;;;;;;;5069198;28;20025;-75
2021/03/15 14:30:54;;;;;;;9.35;5.20;;;;;;;;;;5069011;28;20031;-74
2021/03/15 14:33:21;;;;;;;8.65;4.10;;;;;;;;;;5068571;28;20488;-74
2021/03/15 14:35:48;;;;;;;11.10;5.10;;;;;;;;;;5069059;28;20048;-75
2021/03/15 14:38:14;;;;;;;9.45;5.28;;;;;;;;;;5068868;28;20032;-75
2021/03/15 14:40:40;;;;;;;10.90;5.50;;;;;;;;;;5068680;28;20021;-76
2021/03/15 14:43:06;;;;;;;7.28;4.05;;;;;;;;;;5068682;28;20031;-76
2021/03/15 14:45:33;;;;;;;9.02;5.13;;;;;;;;;;5068770;28;20095;-76
2021/03/15 14:47:59;;;;;;;11.32;7.13;;;;;;;;;;5068330;28;20441;-74
2021/03/15 14:50:25;;;;;;;20.48;13.20;;;;;;;;;;5068712;28;20021;-75
2021/03/15 14:52:51;;;;;;;19.23;10.57;;;;;;;;;;5068324;28;20471;-75
2021/03/15 14:55:18;;;;;;;18.58;10.20;;;;;;;;;;5068219;28;20028;-74
2021/03/15 14:57:44;;;;;;;14.88;7.95;;;;;;;;;;5068937;28;20495;-74
2021/03/15 15:00:11;;;;;;;14.00;8.18;;;;;;;;;;5067310;28;20033;-74
2021/03/15 15:02:37;;;;;;;16.95;10.40;;;;;;;;;;5068101;28;20028;-73
2021/03/15 15:05:03;;;;;;;15.07;9.77;;;;;;;;;;5058464;28;20063;-74
2021/03/15 15:07:29;;;;;;;23.17;13.27;;;;;;;;;;5055254;28;20025;-75
2021/03/15 15:09:56;;;;;;;26.48;14.95;;;;;;;;;;5054764;28;20474;-75
2021/03/15 15:12:22;;;;;;;17.05;10.73;;;;;;;;;;5054921;28;20037;-76